createdAt,value
2022-09-27T00:01:47.067Z,28.40
2022-09-27T00:04:15.553Z,28.80
2022-09-27T00:06:43.665Z,28.60
2022-09-27T00:09:12.150Z,35.20
2022-09-27T00:11:43.348Z,37.80
2022-09-27T00:14:12.708Z,28.20
2022-09-27T00:16:41.832Z,30.20
2022-09-27T00:19:12.287Z,26.80
2022-09-27T00:21:40.505Z,31.60
2022-09-27T00:24:08.888Z,31.20
2022-09-27T00:26:37.015Z,34.60
2022-09-27T00:29:06.973Z,32.00
2022-09-27T00:31:35.520Z,0.00
2022-09-27T00:34:04.257Z,34.20
2022-09-27T00:36:32.973Z,35.00
2022-09-27T00:39:01.610Z,35.00
2022-09-27T00:41:32.243Z,38.20
2022-09-27T00:44:01.348Z,32.00
2022-09-27T00:46:33.050Z,34.40
2022-09-27T00:49:04.819Z,37.00
2022-09-27T00:51:35.808Z,33.40
2022-09-27T00:54:04.472Z,34.80
2022-09-27T00:56:33.359Z,36.60
2022-09-27T00:59:05.476Z,61.80
2022-09-27T01:01:35.408Z,26.20
2022-09-27T01:04:07.882Z,42.00
2022-09-27T01:06:36.148Z,34.00
2022-09-27T01:09:05.414Z,25.80
2022-09-27T01:11:39.909Z,36.40
2022-09-27T01:14:38.211Z,42.00
2022-09-27T01:17:14.639Z,43.40
2022-09-27T01:19:53.193Z,39.80
2022-09-27T01:22:25.192Z,54.60
2022-09-27T01:25:14.356Z,56.20
2022-09-27T01:28:01.458Z,47.20
2022-09-27T01:30:33.262Z,43.20
2022-09-27T01:33:09.952Z,40.00
2022-09-27T01:35:43.825Z,29.40
2022-09-27T01:38:15.361Z,32.20
2022-09-27T01:40:49.508Z,28.40
2022-09-27T01:43:51.377Z,32.40
2022-09-27T01:46:28.195Z,29.60
2022-09-27T01:49:14.985Z,32.60
2022-09-27T01:51:46.162Z,37.20
2022-09-27T01:54:17.751Z,30.60
2022-09-27T01:57:26.864Z,38.40
2022-09-27T01:59:58.935Z,38.60
2022-09-27T02:02:51.859Z,34.20
2022-09-27T02:05:33.682Z,37.60
2022-09-27T02:08:16.309Z,36.00
2022-09-27T02:10:46.371Z,35.00
2022-09-27T02:13:21.480Z,29.80
2022-09-27T02:15:57.248Z,35.60
2022-09-27T02:18:42.447Z,35.20
2022-09-27T02:21:13.120Z,32.80
2022-09-27T02:23:43.522Z,29.40
2022-09-27T02:26:17.212Z,33.00
2022-09-27T02:28:49.915Z,32.60
2022-09-27T02:31:26.040Z,26.00
2022-09-27T02:34:00.700Z,22.60
2022-09-27T02:36:29.684Z,23.40
2022-09-27T02:38:58.211Z,23.00
2022-09-27T02:41:27.927Z,22.60
2022-09-27T02:43:59.268Z,14.00
2022-09-27T02:46:40.734Z,17.75
2022-09-27T02:49:21.323Z,19.25
2022-09-27T02:52:13.597Z,16.00
2022-09-27T02:54:46.065Z,18.00
2022-09-27T02:57:39.808Z,17.00
2022-09-27T03:00:16.954Z,18.50
2022-09-27T03:03:19.869Z,20.00
2022-09-27T03:05:57.785Z,17.50
2022-09-27T03:08:26.194Z,16.00
2022-09-27T03:10:54.453Z,19.50
2022-09-27T03:13:23.304Z,15.50
2022-09-27T03:15:52.015Z,18.75
2022-09-27T03:18:20.245Z,21.25
2022-09-27T03:21:08.531Z,20.00
2022-09-27T03:23:38.246Z,17.25
2022-09-27T03:26:10.748Z,12.50
2022-09-27T03:28:41.931Z,15.75
2022-09-27T03:31:10.415Z,13.75
2022-09-27T03:33:57.291Z,15.75
2022-09-27T03:36:29.000Z,10.75
2022-09-27T03:38:57.160Z,27.00
2022-09-27T03:41:25.383Z,25.25
2022-09-27T03:43:56.749Z,27.20
2022-09-27T03:46:25.232Z,38.00
2022-09-27T03:48:53.539Z,33.80
2022-09-27T03:51:22.155Z,34.80
2022-09-27T03:53:51.889Z,32.40
2022-09-27T03:56:20.236Z,36.40
2022-09-27T03:58:48.702Z,45.80
2022-09-27T04:01:18.613Z,54.00
2022-09-27T04:03:50.052Z,40.00
2022-09-27T04:06:47.198Z,41.60
2022-09-27T04:09:16.935Z,36.80
2022-09-27T04:11:58.803Z,33.80
2022-09-27T04:14:28.125Z,34.80
2022-09-27T04:17:22.963Z,34.20
2022-09-27T04:20:10.085Z,36.80
2022-09-27T04:22:44.373Z,34.60
2022-09-27T04:25:14.602Z,25.20
2022-09-27T04:27:45.939Z,22.80
2022-09-27T04:30:14.517Z,26.50
2022-09-27T04:33:14.805Z,23.40
2022-09-27T04:36:21.925Z,26.20
2022-09-27T04:39:19.192Z,24.00
2022-09-27T04:41:50.789Z,25.80
2022-09-27T04:44:19.050Z,24.80
2022-09-27T04:46:51.191Z,21.25
2022-09-27T04:49:19.405Z,14.50
2022-09-27T04:51:48.016Z,20.00
2022-09-27T04:54:16.261Z,17.75
2022-09-27T04:56:58.360Z,16.25
2022-09-27T04:59:27.840Z,16.25
2022-09-27T05:01:56.191Z,20.75
2022-09-27T05:04:53.475Z,20.50
2022-09-27T05:07:23.010Z,16.25
2022-09-27T05:10:02.035Z,14.50
2022-09-27T05:12:32.882Z,15.75
2022-09-27T05:15:03.823Z,20.50
2022-09-27T05:17:52.246Z,16.00
2022-09-27T05:20:59.280Z,15.00
2022-09-27T05:23:37.492Z,11.50
2022-09-27T05:26:06.301Z,15.75
2022-09-27T05:28:36.779Z,14.25
2022-09-27T05:31:05.224Z,16.00
2022-09-27T05:33:34.521Z,17.75
2022-09-27T05:36:23.937Z,17.00
2022-09-27T05:38:53.723Z,13.25
2022-09-27T05:41:24.221Z,13.50
2022-09-27T05:43:54.053Z,17.50
2022-09-27T05:46:22.535Z,18.00
2022-09-27T05:48:50.768Z,17.00
2022-09-27T05:51:19.676Z,16.75
2022-09-27T05:53:49.110Z,13.00
2022-09-27T05:56:26.111Z,6.75
2022-09-27T05:59:24.721Z,15.00
2022-09-27T06:02:22.122Z,9.25
2022-09-27T06:05:19.989Z,11.00
2022-09-27T06:08:08.173Z,11.25
2022-09-27T06:10:42.819Z,6.50
2022-09-27T06:13:13.311Z,13.00
2022-09-27T06:15:47.462Z,13.50
2022-09-27T06:18:17.327Z,14.00
2022-09-27T06:20:47.983Z,18.50
2022-09-27T06:23:18.746Z,16.00
2022-09-27T06:25:48.935Z,18.50
2022-09-27T06:28:29.634Z,12.00
2022-09-27T06:31:01.353Z,15.50
2022-09-27T06:33:37.435Z,12.25
2022-09-27T06:36:09.374Z,15.00
2022-09-27T06:38:39.980Z,14.50
2022-09-27T06:41:38.148Z,17.25
2022-09-27T06:44:12.594Z,16.00
2022-09-27T06:47:00.946Z,22.25
2022-09-27T06:50:07.873Z,18.50
2022-09-27T06:52:37.242Z,19.50
2022-09-27T06:55:06.463Z,26.75
2022-09-27T06:57:52.839Z,25.00
2022-09-27T07:00:27.871Z,19.25
2022-09-27T07:03:38.924Z,15.75
2022-09-27T07:06:27.299Z,21.50
2022-09-27T07:09:14.760Z,24.50
2022-09-27T07:11:48.863Z,24.00
2022-09-27T07:14:17.965Z,23.00
2022-09-27T07:16:46.645Z,31.80
2022-09-27T07:19:18.411Z,32.00
2022-09-27T07:21:48.106Z,25.00
2022-09-27T07:24:16.360Z,26.50
2022-09-27T07:26:44.945Z,25.75
2022-09-27T07:29:14.866Z,29.00
2022-09-27T07:31:43.920Z,30.60
2022-09-27T07:34:12.473Z,36.00
2022-09-27T07:36:42.827Z,35.60
2022-09-27T07:39:11.219Z,36.80
2022-09-27T07:41:40.562Z,39.20
2022-09-27T07:44:10.264Z,41.00
2022-09-27T07:46:49.141Z,43.00
2022-09-27T07:49:24.609Z,43.40
2022-09-27T07:52:26.836Z,48.20
2022-09-27T07:55:33.735Z,58.20
2022-09-27T07:58:29.098Z,52.80
2022-09-27T08:01:00.942Z,51.60
2022-09-27T08:03:30.164Z,44.00
2022-09-27T08:05:58.388Z,39.40
2022-09-27T08:08:29.100Z,43.40
2022-09-27T08:10:57.480Z,41.60
2022-09-27T08:13:25.879Z,37.40
2022-09-27T08:15:54.989Z,34.80
2022-09-27T08:18:25.335Z,34.00
2022-09-27T08:20:57.762Z,31.80
2022-09-27T08:23:30.285Z,31.60
2022-09-27T08:26:18.818Z,28.75
2022-09-27T08:28:54.150Z,30.00
2022-09-27T08:31:26.550Z,26.00
2022-09-27T08:33:58.300Z,29.50
2022-09-27T08:36:28.064Z,26.25
2022-09-27T08:38:59.888Z,21.00
2022-09-27T08:41:40.027Z,23.25
2022-09-27T08:44:12.018Z,25.25
2022-09-27T08:46:55.615Z,24.00
2022-09-27T08:49:26.252Z,20.50
2022-09-27T08:51:56.496Z,25.75
2022-09-27T08:54:28.538Z,17.75
2022-09-27T08:57:00.978Z,22.50
2022-09-27T08:59:35.692Z,20.00
2022-09-27T09:02:04.242Z,19.75
2022-09-27T09:04:42.992Z,13.75
2022-09-27T09:07:18.744Z,19.25
2022-09-27T09:09:57.576Z,16.75
2022-09-27T09:12:48.887Z,14.00
2022-09-27T09:15:55.677Z,18.50
2022-09-27T09:18:45.058Z,17.50
2022-09-27T09:21:23.450Z,17.00
2022-09-27T09:24:03.945Z,17.50
2022-09-27T09:26:45.343Z,16.75
2022-09-27T09:29:53.823Z,18.75
2022-09-27T09:32:52.764Z,15.00
2022-09-27T09:35:50.166Z,13.25
2022-09-27T09:38:22.545Z,12.50
2022-09-27T09:40:53.958Z,9.00
2022-09-27T09:43:30.817Z,6.50
2022-09-27T09:46:03.797Z,3.50
2022-09-27T09:48:36.604Z,8.50
2022-09-27T09:51:07.869Z,4.25
2022-09-27T09:53:40.767Z,3.25
2022-09-27T09:56:16.188Z,2.00
2022-09-27T09:58:51.166Z,2.00
2022-09-27T10:01:29.805Z,2.50
2022-09-27T10:03:58.092Z,2.00
2022-09-27T10:06:27.598Z,2.00
2022-09-27T10:08:56.844Z,3.50
2022-09-27T10:11:38.893Z,1.40
2022-09-27T10:14:32.926Z,1.00
2022-09-27T10:17:08.598Z,3.00
2022-09-27T10:19:39.916Z,1.20
2022-09-27T10:22:15.053Z,5.00
2022-09-27T10:24:54.568Z,5.00
2022-09-27T10:27:47.200Z,3.50
2022-09-27T10:30:26.325Z,2.75
2022-09-27T10:32:57.192Z,3.00
2022-09-27T10:35:45.363Z,2.00
2022-09-27T10:38:38.293Z,3.00
2022-09-27T10:41:23.003Z,2.50
2022-09-27T10:43:57.379Z,2.25
2022-09-27T10:46:33.400Z,3.50
2022-09-27T10:49:21.433Z,4.00
2022-09-27T10:51:53.999Z,4.00
2022-09-27T10:54:24.392Z,2.00
2022-09-27T10:56:56.896Z,3.50
2022-09-27T10:59:25.839Z,4.00
2022-09-27T11:01:56.002Z,3.00
2022-09-27T11:04:39.089Z,7.00
2022-09-27T11:07:15.095Z,6.00
2022-09-27T11:09:52.937Z,7.00
2022-09-27T11:12:23.205Z,6.75
2022-09-27T11:14:58.698Z,5.50
2022-09-27T11:17:34.158Z,3.00
2022-09-27T11:20:17.293Z,2.75
2022-09-27T11:23:00.651Z,3.50
2022-09-27T11:25:38.686Z,5.75
2022-09-27T11:28:17.221Z,2.75
2022-09-27T11:30:50.008Z,6.00
2022-09-27T11:33:51.190Z,8.00
2022-09-27T11:36:24.280Z,6.50
2022-09-27T11:39:02.531Z,8.75
2022-09-27T11:41:42.507Z,8.50
2022-09-27T11:44:28.570Z,5.00
2022-09-27T11:47:02.329Z,4.00
2022-09-27T11:49:45.312Z,7.00
2022-09-27T11:52:28.799Z,4.00
2022-09-27T11:55:07.200Z,3.75
2022-09-27T11:57:50.398Z,2.00
2022-09-27T12:00:21.039Z,4.25
2022-09-27T12:03:25.029Z,2.00
2022-09-27T12:06:07.838Z,4.25
2022-09-27T12:08:50.603Z,5.25
2022-09-27T12:11:21.963Z,4.00
2022-09-27T12:13:58.021Z,2.25
2022-09-27T12:16:27.574Z,3.25
2022-09-27T12:18:56.205Z,3.00
2022-09-27T12:21:53.110Z,3.00
2022-09-27T12:24:24.853Z,3.00
2022-09-27T12:27:16.491Z,4.00
2022-09-27T12:29:48.450Z,4.00
2022-09-27T12:32:20.519Z,3.00
2022-09-27T12:34:53.072Z,0.40
2022-09-27T12:37:26.383Z,4.00
2022-09-27T12:40:00.189Z,3.50
2022-09-27T12:45:21.636Z,4.00
2022-09-27T12:47:58.621Z,4.00
2022-09-27T12:50:31.546Z,3.25
2022-09-27T12:53:05.769Z,3.00
2022-09-27T12:55:51.133Z,3.25
2022-09-27T12:58:31.282Z,3.00
2022-09-27T13:01:01.730Z,2.25
2022-09-27T13:03:48.123Z,3.00
2022-09-27T13:06:37.283Z,2.00
2022-09-27T13:09:20.075Z,3.75
2022-09-27T13:11:58.431Z,2.50
2022-09-27T13:14:30.693Z,2.75
2022-09-27T13:16:59.588Z,6.00
2022-09-27T13:20:22.550Z,3.00
2022-09-27T13:23:04.376Z,3.50
2022-09-27T13:25:56.491Z,2.25
2022-09-27T13:29:02.497Z,6.75
2022-09-27T13:31:59.595Z,21.50
2022-09-27T13:34:56.650Z,4.00
2022-09-27T13:37:37.013Z,3.50
2022-09-27T13:40:23.030Z,2.50
2022-09-27T13:43:06.891Z,2.50
2022-09-27T13:45:37.704Z,2.50
2022-09-27T13:48:11.569Z,2.20
2022-09-27T13:50:47.207Z,4.00
2022-09-27T13:53:23.380Z,3.75
2022-09-27T13:55:54.584Z,3.50
2022-09-27T13:58:52.754Z,3.00
2022-09-27T14:01:48.607Z,7.00
2022-09-27T14:04:21.303Z,7.25
2022-09-27T14:06:51.917Z,6.00
2022-09-27T14:09:21.425Z,4.00
2022-09-27T14:12:01.747Z,5.50
2022-09-27T14:14:35.163Z,6.50
2022-09-27T14:17:10.037Z,4.00
2022-09-27T14:19:43.220Z,2.50
2022-09-27T14:22:15.373Z,5.50
2022-09-27T14:25:17.801Z,6.00
2022-09-27T14:27:48.922Z,2.00
2022-09-27T14:30:25.168Z,3.50
2022-09-27T14:33:02.006Z,4.00
2022-09-27T14:36:08.478Z,3.00
2022-09-27T14:38:39.362Z,4.25
2022-09-27T14:41:19.467Z,3.00
2022-09-27T14:43:50.339Z,3.50
2022-09-27T14:46:27.958Z,4.00
2022-09-27T14:48:56.743Z,4.00
2022-09-27T14:51:28.275Z,4.50
2022-09-27T14:53:59.051Z,3.00
2022-09-27T14:56:28.892Z,5.00
2022-09-27T14:59:03.087Z,5.00
2022-09-27T15:01:34.545Z,5.00
2022-09-27T15:04:06.145Z,4.50
2022-09-27T15:06:34.774Z,5.50
2022-09-27T15:09:02.936Z,6.00
2022-09-27T15:11:34.998Z,6.25
2022-09-27T15:14:07.262Z,23.75
2022-09-27T15:16:36.977Z,8.25
2022-09-27T15:19:07.871Z,7.25
2022-09-27T15:21:37.762Z,6.25
2022-09-27T15:24:07.395Z,7.00
2022-09-27T15:26:37.547Z,7.25
2022-09-27T15:29:06.145Z,10.50
2022-09-27T15:31:36.169Z,10.50
2022-09-27T15:34:07.267Z,10.50
2022-09-27T15:37:00.572Z,12.75
2022-09-27T15:39:35.774Z,13.25
2022-09-27T15:42:20.385Z,11.25
2022-09-27T15:44:50.267Z,12.50
2022-09-27T15:47:37.871Z,10.00
2022-09-27T15:50:20.854Z,10.25
2022-09-27T15:52:51.519Z,10.50
2022-09-27T15:55:20.744Z,10.25
2022-09-27T15:57:54.294Z,11.00
2022-09-27T16:00:22.736Z,12.75
2022-09-27T16:02:51.170Z,11.25
2022-09-27T16:05:23.482Z,11.00
2022-09-27T16:07:53.534Z,11.75
2022-09-27T16:10:23.680Z,13.00
2022-09-27T16:12:52.526Z,11.50
2022-09-27T16:15:20.972Z,10.50
2022-09-27T16:17:49.694Z,11.50
2022-09-27T16:20:20.044Z,9.25
2022-09-27T16:22:49.627Z,11.00
2022-09-27T16:25:20.971Z,15.00
2022-09-27T16:27:50.802Z,13.00
2022-09-27T16:30:20.973Z,11.50
2022-09-27T16:32:50.415Z,12.00
2022-09-27T16:35:19.939Z,11.50
2022-09-27T16:37:50.312Z,13.25
2022-09-27T16:40:20.327Z,14.00
2022-09-27T16:42:50.128Z,13.00
2022-09-27T16:45:19.719Z,11.00
2022-09-27T16:47:50.085Z,10.75
2022-09-27T16:50:35.602Z,11.75
2022-09-27T16:53:05.409Z,8.25
2022-09-27T16:55:35.097Z,14.25
2022-09-27T16:58:05.355Z,12.25
2022-09-27T17:00:33.822Z,10.00
2022-09-27T17:03:02.423Z,12.25
2022-09-27T17:05:31.913Z,14.50
2022-09-27T17:08:05.858Z,12.75
2022-09-27T17:10:36.069Z,12.25
2022-09-27T17:13:04.335Z,10.25
2022-09-27T17:15:42.334Z,11.00
2022-09-27T17:18:10.788Z,12.25
2022-09-27T17:20:41.201Z,11.00
2022-09-27T17:23:34.825Z,13.00
2022-09-27T17:26:05.894Z,8.25
2022-09-27T17:28:34.097Z,10.00
2022-09-27T17:31:08.682Z,9.00
2022-09-27T17:33:41.948Z,6.00
2022-09-27T17:36:10.704Z,12.00
2022-09-27T17:38:39.018Z,10.00
2022-09-27T17:41:10.640Z,10.75
2022-09-27T17:43:43.880Z,6.75
2022-09-27T17:46:12.118Z,9.25
2022-09-27T17:48:57.604Z,7.25
2022-09-27T17:51:25.745Z,11.00
2022-09-27T17:53:54.318Z,14.00
2022-09-27T17:56:24.645Z,10.25
2022-09-27T17:58:54.352Z,10.25
2022-09-27T18:01:23.919Z,10.50
2022-09-27T18:03:54.679Z,10.00
2022-09-27T18:06:23.579Z,10.00
2022-09-27T18:08:52.244Z,10.75
2022-09-27T18:11:30.275Z,8.00
2022-09-27T18:14:02.224Z,10.00
2022-09-27T18:16:32.718Z,13.50
2022-09-27T18:19:01.263Z,11.50
2022-09-27T18:21:31.813Z,10.25
2022-09-27T18:24:03.139Z,8.00
2022-09-27T18:26:32.726Z,10.00
2022-09-27T18:29:03.546Z,9.75
2022-09-27T18:34:18.600Z,10.25
2022-09-27T18:36:47.830Z,7.25
2022-09-27T18:39:19.385Z,6.75
2022-09-27T18:41:49.361Z,8.00
2022-09-27T18:44:19.606Z,3.00
2022-09-27T18:46:48.514Z,5.00
2022-09-27T18:49:16.877Z,8.00
2022-09-27T18:51:47.451Z,9.00
2022-09-27T18:54:17.485Z,10.75
2022-09-27T18:56:47.948Z,11.75
2022-09-27T18:59:17.771Z,11.00
2022-09-27T19:01:47.888Z,11.50
2022-09-27T19:04:21.511Z,9.00
2022-09-27T19:06:51.841Z,14.00
2022-09-27T19:09:20.311Z,13.50
2022-09-27T19:11:49.087Z,9.00
2022-09-27T19:14:18.615Z,5.00
2022-09-27T19:16:48.794Z,12.00
2022-09-27T19:19:17.277Z,11.25
2022-09-27T19:21:46.036Z,11.50
2022-09-27T19:24:15.332Z,9.75
2022-09-27T19:26:44.048Z,14.50
2022-09-27T19:29:13.114Z,10.75
2022-09-27T19:31:42.717Z,11.50
2022-09-27T19:34:12.832Z,10.75
2022-09-27T19:36:41.021Z,12.75
2022-09-27T19:39:09.628Z,12.75
2022-09-27T19:41:38.177Z,10.00
2022-09-27T19:44:06.923Z,12.00
2022-09-27T19:46:35.253Z,10.00
2022-09-27T19:49:03.759Z,12.00
2022-09-27T19:51:33.908Z,10.00
2022-09-27T19:54:04.678Z,6.25
2022-09-27T19:56:32.771Z,8.50
2022-09-27T19:59:07.059Z,9.00
2022-09-27T20:01:43.976Z,12.75
2022-09-27T20:04:15.918Z,10.00
2022-09-27T20:06:47.476Z,1.25
2022-09-27T20:09:16.645Z,9.00
2022-09-27T20:11:46.274Z,9.50
2022-09-27T20:14:18.143Z,8.25
2022-09-27T20:16:46.619Z,10.00
2022-09-27T20:19:17.145Z,7.00
2022-09-27T20:21:52.573Z,7.00
2022-09-27T20:24:21.485Z,7.00
2022-09-27T20:26:51.265Z,6.00
2022-09-27T20:29:19.675Z,8.75
2022-09-27T20:32:15.526Z,8.00
2022-09-27T20:34:36.383Z,6.50
2022-09-27T20:37:07.630Z,3.00
2022-09-27T20:39:35.959Z,7.50
2022-09-27T20:42:04.120Z,7.25
2022-09-27T20:44:32.381Z,8.00
2022-09-27T20:47:00.389Z,7.75
2022-09-27T20:49:28.531Z,6.00
2022-09-27T20:51:56.702Z,7.75
2022-09-27T20:54:27.092Z,5.75
2022-09-27T20:56:55.282Z,6.25
2022-09-27T20:59:24.071Z,8.00
2022-09-27T21:01:53.744Z,6.75
2022-09-27T21:04:23.583Z,5.75
2022-09-27T21:06:52.704Z,5.50
2022-09-27T21:09:21.508Z,5.75
2022-09-27T21:11:52.140Z,4.50
2022-09-27T21:14:20.627Z,4.75
2022-09-27T21:16:48.672Z,4.75
2022-09-27T21:19:16.893Z,7.75
2022-09-27T21:21:45.085Z,1.00
2022-09-27T21:24:13.065Z,5.00
2022-09-27T21:26:41.062Z,5.75
2022-09-27T21:29:11.797Z,6.75
2022-09-27T21:31:43.019Z,5.00
2022-09-27T21:34:11.098Z,4.50
2022-09-27T21:36:39.956Z,1.00
2022-09-27T21:39:09.602Z,5.00
2022-09-27T21:41:39.165Z,8.50
2022-09-27T21:44:07.836Z,4.25
2022-09-27T21:46:40.261Z,7.50
2022-09-27T21:49:08.631Z,3.00
2022-09-27T21:51:38.551Z,4.00
2022-09-27T21:54:07.903Z,3.50
2022-09-27T21:56:37.525Z,5.00
2022-09-27T21:59:05.909Z,5.00
2022-09-27T22:01:35.047Z,0.50
2022-09-27T22:04:05.455Z,1.00
2022-09-27T22:06:34.613Z,4.75
2022-09-27T22:09:03.167Z,3.00
2022-09-27T22:11:32.204Z,5.00
2022-09-27T22:14:00.709Z,4.50
2022-09-27T22:16:30.291Z,3.50
2022-09-27T22:18:58.792Z,5.00
2022-09-27T22:21:29.300Z,3.00
2022-09-27T22:23:58.277Z,3.50
2022-09-27T22:26:27.776Z,3.50
2022-09-27T22:28:56.473Z,4.00
2022-09-27T22:31:24.746Z,1.75
2022-09-27T22:33:55.065Z,2.50
2022-09-27T22:36:23.400Z,0.25
2022-09-27T22:38:53.624Z,2.00
2022-09-27T22:41:21.657Z,6.00
2022-09-27T22:43:49.707Z,5.75
2022-09-27T22:46:20.417Z,5.00
2022-09-27T22:48:49.862Z,2.00
2022-09-27T22:51:18.523Z,3.00
2022-09-27T22:53:46.612Z,5.00
2022-09-27T22:56:16.972Z,4.00
2022-09-27T22:58:45.452Z,5.25
2022-09-27T23:01:16.173Z,5.75
2022-09-27T23:03:44.610Z,4.00
2022-09-27T23:06:12.930Z,4.25
2022-09-27T23:08:41.542Z,7.00
2022-09-27T23:11:10.333Z,3.00
2022-09-27T23:13:40.432Z,1.00
2022-09-27T23:16:09.679Z,5.00
2022-09-27T23:18:38.255Z,3.00
2022-09-27T23:21:07.254Z,5.00
2022-09-27T23:23:35.667Z,3.50
2022-09-27T23:26:05.061Z,5.50
2022-09-27T23:28:33.602Z,2.00
2022-09-27T23:31:08.372Z,1.00
2022-09-27T23:33:37.021Z,5.00
2022-09-27T23:36:05.473Z,4.25
2022-09-27T23:38:34.056Z,5.00
2022-09-27T23:41:02.417Z,4.75
2022-09-27T23:43:30.552Z,2.50
2022-09-27T23:45:58.586Z,0.50
2022-09-27T23:48:28.108Z,5.00
2022-09-27T23:50:56.855Z,5.00
2022-09-27T23:53:25.344Z,4.00
2022-09-27T23:56:03.386Z,5.00
2022-09-27T23:58:33.266Z,4.00
